Time;durP1;ratioP1;P1;durP2;ratioP2;P2;SDS_P1;SDS_P2;PMS_P1;PMS_P2;Temp;Humidity;BMP_temperature;BMP_pressure;BME280_temperature;BME280_humidity;BME280_pressure;Samples;Min_cycle;Max_cycle;Signal;HPM_P1;HPM_P2
2023/05/09 04:06:32;;;;;;;8.67;7.10;;;13.00;99.90;;;;;;4937367;29;20481;-65
2023/05/09 04:08:57;;;;;;;6.63;5.30;;;13.00;99.90;;;;;;4939512;29;20412;-65
2023/05/09 04:11:23;;;;;;;7.10;6.40;;;13.10;99.90;;;;;;4939521;29;20396;-66
2023/05/09 04:13:48;;;;;;;7.17;5.93;;;13.10;99.90;;;;;;4938886;29;20176;-66
2023/05/09 04:16:14;;;;;;;5.73;5.23;;;13.10;99.90;;;;;;4939166;29;20204;-65
2023/05/09 04:18:41;;;;;;;8.13;5.20;;;13.10;99.90;;;;;;4939379;29;20173;-66
2023/05/09 04:21:06;;;;;;;9.97;6.30;;;13.10;99.90;;;;;;4939244;29;20168;-66
2023/05/09 04:23:32;;;;;;;8.90;5.87;;;13.10;99.90;;;;;;4928635;29;20432;-66
2023/05/09 04:25:58;;;;;;;7.80;6.37;;;13.10;99.90;;;;;;4920205;29;20197;-66
2023/05/09 04:28:24;;;;;;;6.07;5.33;;;13.20;99.90;;;;;;4920214;29;20173;-66
2023/05/09 04:30:50;;;;;;;8.17;6.90;;;13.20;99.90;;;;;;4920263;29;20460;-66
2023/05/09 04:33:15;;;;;;;7.90;5.93;;;13.30;99.90;;;;;;4919796;29;20191;-66
2023/05/09 04:35:41;;;;;;;6.47;5.83;;;13.30;99.90;;;;;;4918769;29;20217;-66
2023/05/09 04:38:07;;;;;;;9.27;7.23;;;13.40;99.90;;;;;;4920127;29;20421;-67
2023/05/09 04:40:32;;;;;;;8.33;5.50;;;13.40;99.90;;;;;;4920119;29;20191;-67
2023/05/09 04:42:58;;;;;;;7.43;6.73;;;13.40;99.90;;;;;;4919752;29;20209;-66
2023/05/09 04:45:24;;;;;;;7.30;6.47;;;13.50;99.90;;;;;;4919540;29;20193;-67
2023/05/09 04:47:50;;;;;;;5.70;5.20;;;13.50;99.90;;;;;;4919928;29;20185;-68
2023/05/09 04:50:15;;;;;;;8.17;7.37;;;13.50;99.90;;;;;;4911756;29;20254;-66
2023/05/09 04:52:41;;;;;;;11.50;7.50;;;13.60;99.90;;;;;;4938536;29;20898;-67
2023/05/09 04:55:07;;;;;;;8.80;6.33;;;13.60;99.90;;;;;;4938092;29;20221;-66
2023/05/09 04:57:32;;;;;;;9.70;7.20;;;13.70;99.90;;;;;;4921381;29;20220;-66
2023/05/09 04:59:58;;;;;;;8.33;7.47;;;13.80;99.90;;;;;;4911841;29;20401;-66
2023/05/09 05:02:24;;;;;;;8.60;5.90;;;13.90;99.90;;;;;;4902099;29;20181;-66
2023/05/09 05:04:50;;;;;;;8.17;6.57;;;14.00;99.90;;;;;;4901807;29;20256;-65
2023/05/09 05:07:15;;;;;;;8.90;8.00;;;14.10;99.90;;;;;;4918996;29;20182;-66
2023/05/09 05:09:41;;;;;;;8.60;6.87;;;14.20;99.90;;;;;;4901428;29;20913;-68
2023/05/09 05:12:07;;;;;;;10.83;6.50;;;14.20;99.90;;;;;;4902207;29;20185;-65
2023/05/09 05:14:33;;;;;;;10.87;8.37;;;14.30;99.90;;;;;;4918671;29;20345;-66
2023/05/09 05:16:59;;;;;;;9.87;8.87;;;14.50;99.90;;;;;;4919188;29;20536;-66
2023/05/09 05:19:25;;;;;;;8.27;7.43;;;14.60;99.90;;;;;;4902091;29;20427;-68
2023/05/09 05:21:50;;;;;;;7.47;6.77;;;14.70;99.90;;;;;;4919057;29;20254;-65
2023/05/09 05:24:16;;;;;;;12.47;9.07;;;14.80;99.90;;;;;;4918674;29;20213;-64
2023/05/09 05:26:41;;;;;;;8.17;6.30;;;14.90;99.90;;;;;;4919008;29;20632;-62
2023/05/09 05:29:07;;;;;;;8.80;6.17;;;14.90;99.90;;;;;;4918831;29;20659;-62
2023/05/09 05:31:33;;;;;;;10.10;7.17;;;15.10;99.90;;;;;;4918896;29;20194;-63
2023/05/09 05:33:58;;;;;;;8.67;7.80;;;15.20;99.90;;;;;;4918566;29;20419;-61
2023/05/09 05:36:24;;;;;;;9.17;7.30;;;15.30;99.90;;;;;;4918260;29;20202;-66
2023/05/09 05:38:50;;;;;;;7.77;6.70;;;15.50;99.90;;;;;;4929021;29;20692;-66
2023/05/09 05:41:16;;;;;;;9.30;7.47;;;15.60;99.90;;;;;;4918519;29;20239;-70
2023/05/09 05:43:41;;;;;;;7.33;6.23;;;15.70;99.90;;;;;;4905600;29;20271;-64
2023/05/09 05:46:07;;;;;;;9.10;8.10;;;15.80;99.90;;;;;;4920181;29;20196;-65
2023/05/09 05:48:32;;;;;;;12.00;8.03;;;15.80;99.90;;;;;;4937597;29;20182;-65
2023/05/09 05:50:58;;;;;;;9.67;6.10;;;15.90;99.90;;;;;;4936919;29;20183;-68
2023/05/09 05:53:24;;;;;;;9.33;6.90;;;16.00;99.90;;;;;;4935022;29;20210;-64
2023/05/09 05:55:49;;;;;;;10.20;7.90;;;16.10;99.90;;;;;;4937347;29;20203;-65
2023/05/09 05:58:15;;;;;;;7.93;6.50;;;16.20;99.90;;;;;;4937288;29;20700;-64
2023/05/09 06:00:40;;;;;;;8.07;6.40;;;16.20;99.90;;;;;;4937696;29;20172;-65
2023/05/09 06:03:06;;;;;;;7.90;6.40;;;16.20;99.90;;;;;;4937220;29;20181;-64
2023/05/09 06:05:32;;;;;;;11.10;7.30;;;16.20;99.90;;;;;;4937001;29;20696;-65
2023/05/09 06:07:58;;;;;;;8.30;6.77;;;16.30;99.90;;;;;;4920249;29;20181;-65
2023/05/09 06:10:23;;;;;;;10.37;7.13;;;16.40;99.90;;;;;;4937223;29;20418;-65
2023/05/09 06:12:49;;;;;;;9.93;6.50;;;16.50;99.90;;;;;;4935560;29;20177;-65
2023/05/09 06:15:14;;;;;;;8.43;7.23;;;16.60;99.90;;;;;;4936514;29;20223;-65
2023/05/09 06:17:40;;;;;;;8.33;7.33;;;16.60;99.90;;;;;;4919787;29;20255;-65
2023/05/09 06:20:06;;;;;;;11.17;7.70;;;16.60;99.90;;;;;;4919194;29;20329;-65
2023/05/09 06:22:32;;;;;;;11.83;7.43;;;16.70;99.90;;;;;;4936896;29;20635;-65
2023/05/09 06:24:57;;;;;;;10.13;7.43;;;16.80;99.90;;;;;;4919432;29;20436;-65
2023/05/09 06:27:23;;;;;;;10.47;8.10;;;16.90;99.90;;;;;;4937017;29;20178;-65
2023/05/09 06:29:48;;;;;;;9.03;7.07;;;16.90;99.90;;;;;;4936698;29;20643;-65
2023/05/09 06:32:14;;;;;;;12.57;8.87;;;16.90;99.90;;;;;;4936788;29;20178;-65
2023/05/09 06:34:40;;;;;;;9.67;8.10;;;17.00;99.90;;;;;;4936371;29;20278;-65
2023/05/09 06:37:06;;;;;;;8.40;7.27;;;17.10;99.90;;;;;;4919358;29;20249;-64
2023/05/09 06:39:32;;;;;;;9.70;7.57;;;17.30;99.90;;;;;;4936685;29;20417;-66
2023/05/09 06:41:58;;;;;;;8.27;6.67;;;17.40;99.90;;;;;;4936742;29;20174;-65
2023/05/09 06:44:23;;;;;;;8.40;6.30;;;17.40;99.90;;;;;;4936042;29;20410;-66
2023/05/09 06:46:49;;;;;;;9.80;7.47;;;17.60;99.90;;;;;;4936528;29;20309;-65
2023/05/09 06:49:15;;;;;;;8.23;5.83;;;17.70;99.90;;;;;;4936535;29;20173;-66
2023/05/09 06:51:40;;;;;;;7.73;6.63;;;17.90;99.90;;;;;;4936478;29;20691;-64
2023/05/09 06:54:06;;;;;;;7.80;6.37;;;18.10;99.90;;;;;;4918882;29;20224;-66
2023/05/09 06:56:32;;;;;;;8.80;6.87;;;18.30;99.90;;;;;;4936261;29;20193;-67
2023/05/09 06:58:57;;;;;;;10.30;6.33;;;18.30;99.90;;;;;;4934766;29;20168;-65
2023/05/09 07:01:23;;;;;;;9.53;6.63;;;18.40;99.90;;;;;;4917198;29;20637;-65
2023/05/09 07:03:50;;;;;;;7.17;6.23;;;18.50;99.90;;;;;;4916941;29;20225;-65
2023/05/09 07:06:16;;;;;;;10.27;7.17;;;18.50;99.90;;;;;;4917271;29;20804;-64
2023/05/09 07:08:41;;;;;;;9.50;7.23;;;18.60;99.90;;;;;;4916999;29;20214;-65
2023/05/09 07:11:07;;;;;;;7.77;6.43;;;18.80;99.90;;;;;;4917237;29;20416;-66
2023/05/09 07:13:33;;;;;;;7.30;6.00;;;19.00;99.90;;;;;;4930247;29;20189;-65
2023/05/09 07:15:58;;;;;;;6.33;5.10;;;19.20;99.90;;;;;;4931387;29;20211;-65
2023/05/09 07:18:24;;;;;;;6.67;5.97;;;19.50;99.90;;;;;;4918018;29;20513;-66
2023/05/09 07:20:49;;;;;;;6.00;5.40;;;19.70;99.90;;;;;;4928237;29;20174;-67
2023/05/09 07:23:15;;;;;;;6.90;6.20;;;20.00;99.90;;;;;;4904421;29;20560;-66
2023/05/09 07:25:41;;;;;;;6.67;5.03;;;20.30;99.90;;;;;;4902478;29;20205;-64
2023/05/09 07:28:06;;;;;;;6.73;5.90;;;20.70;99.90;;;;;;4928603;29;20197;-65
2023/05/09 07:30:32;;;;;;;6.13;5.30;;;20.90;99.90;;;;;;4915881;29;20192;-67
2023/05/09 07:32:58;;;;;;;8.30;6.80;;;21.30;99.90;;;;;;4918513;29;20289;-67
2023/05/09 07:35:23;;;;;;;7.57;6.63;;;21.70;99.90;;;;;;4935907;29;20244;-66
2023/05/09 07:37:49;;;;;;;4.63;4.23;;;21.90;99.90;;;;;;4917176;29;20661;-66
2023/05/09 07:40:15;;;;;;;5.93;5.30;;;22.00;99.90;;;;;;4916999;29;20253;-67
2023/05/09 07:42:43;;;;;;;8.17;5.60;;;22.60;99.90;;;;;;4925747;29;20179;-67
2023/05/09 07:45:10;;;;;;;6.80;5.90;;;23.10;99.90;;;;;;4935386;29;20435;-66
2023/05/09 07:47:35;;;;;;;7.00;6.30;;;23.50;99.90;;;;;;4918781;29;20507;-69
2023/05/09 07:50:01;;;;;;;6.50;5.80;;;23.70;99.90;;;;;;4918758;29;20433;-67
2023/05/09 07:52:26;;;;;;;7.73;7.00;;;23.70;99.90;;;;;;4925695;29;20196;-66
2023/05/09 07:54:53;;;;;;;5.73;5.17;;;23.50;99.90;;;;;;4916651;29;20215;-66
2023/05/09 07:57:18;;;;;;;5.33;4.40;;;23.30;99.90;;;;;;4924235;29;20197;-68
2023/05/09 07:59:44;;;;;;;6.73;5.47;;;23.80;99.90;;;;;;4911023;29;20735;-66
2023/05/09 08:02:09;;;;;;;6.20;5.60;;;24.60;99.60;;;;;;4916645;29;20185;-66
2023/05/09 08:04:37;;;;;;;7.60;6.40;;;25.40;98.20;;;;;;4932210;29;20197;-67
2023/05/09 08:07:06;;;;;;;9.30;6.30;;;26.00;97.10;;;;;;4935738;29;20185;-67
2023/05/09 08:09:31;;;;;;;7.50;6.53;;;26.60;94.90;;;;;;4936052;29;20384;-67
2023/05/09 08:11:57;;;;;;;5.43;4.80;;;26.90;95.10;;;;;;4935503;29;20384;-68
2023/05/09 08:14:23;;;;;;;7.23;6.33;;;27.30;94.80;;;;;;4915156;29;20718;-65
2023/05/09 08:16:48;;;;;;;6.83;6.13;;;27.70;93.60;;;;;;4936021;29;20208;-68
2023/05/09 08:19:14;;;;;;;5.87;5.17;;;28.00;92.80;;;;;;4922106;29;20637;-68
2023/05/09 08:21:39;;;;;;;7.40;6.20;;;28.40;91.10;;;;;;4915732;29;20182;-65
2023/05/09 08:24:06;;;;;;;6.40;5.67;;;28.50;91.20;;;;;;4935213;29;20202;-67
2023/05/09 08:26:33;;;;;;;6.00;5.20;;;28.70;90.60;;;;;;4933814;29;20185;-64
2023/05/09 08:29:00;;;;;;;6.63;5.97;;;28.90;90.80;;;;;;4932691;29;20751;-67
2023/05/09 08:31:26;;;;;;;5.27;4.43;;;28.70;88.00;;;;;;4935622;29;20742;-65
2023/05/09 08:33:51;;;;;;;6.67;6.07;;;28.70;87.90;;;;;;4935080;29;20509;-68
2023/05/09 08:36:17;;;;;;;5.80;5.20;;;28.70;89.80;;;;;;4935135;29;20225;-67
2023/05/09 08:38:42;;;;;;;7.13;6.43;;;28.40;88.80;;;;;;4935485;29;20182;-67
2023/05/09 08:41:08;;;;;;;4.80;4.33;;;28.10;87.90;;;;;;4935391;29;20688;-68
2023/05/09 08:43:35;;;;;;;5.60;5.00;;;28.20;87.00;;;;;;4920193;29;20253;-66
2023/05/09 08:46:05;;;;;;;6.53;5.93;;;28.40;86.60;;;;;;4938716;29;20194;-66
2023/05/09 08:48:36;;;;;;;5.90;5.33;;;28.30;85.40;;;;;;4938742;29;20406;-64
2023/05/09 08:51:05;;;;;;;6.73;5.80;;;28.20;87.60;;;;;;4939014;29;20800;-67
2023/05/09 08:53:32;;;;;;;6.00;5.40;;;28.20;85.50;;;;;;4938543;29;20384;-64
2023/05/09 08:56:00;;;;;;;5.80;5.33;;;28.40;85.50;;;;;;4938456;29;20438;-66
2023/05/09 08:58:25;;;;;;;5.40;4.90;;;28.40;82.70;;;;;;4921721;29;20413;-68
2023/05/09 09:00:54;;;;;;;5.27;4.77;;;28.60;82.80;;;;;;4922064;29;20411;-67
2023/05/09 09:03:20;;;;;;;4.67;4.27;;;29.00;83.60;;;;;;4919231;29;20178;-66
2023/05/09 09:05:46;;;;;;;3.50;3.20;;;29.30;83.10;;;;;;4919276;29;20465;-66
2023/05/09 09:08:14;;;;;;;3.70;3.40;;;29.50;78.70;;;;;;4919706;29;20629;-64
2023/05/09 09:10:47;;;;;;;3.20;2.93;;;29.50;78.70;;;;;;4919419;29;20430;-63
2023/05/09 09:13:14;;;;;;;3.27;2.97;;;29.80;76.90;;;;;;4919329;29;20437;-67
2023/05/09 09:15:42;;;;;;;3.10;2.80;;;29.90;76.60;;;;;;4919250;29;20846;-67
2023/05/09 09:18:10;;;;;;;3.87;3.57;;;29.90;77.00;;;;;;4919395;29;20905;-66
2023/05/09 09:20:51;;;;;;;4.40;3.57;;;30.00;75.80;;;;;;4919099;29;20757;-63
2023/05/09 09:23:19;;;;;;;3.90;3.60;;;29.40;74.80;;;;;;4918683;29;20410;-65
2023/05/09 09:25:46;;;;;;;4.57;4.17;;;28.60;77.40;;;;;;4919054;29;20786;-68
2023/05/09 09:28:11;;;;;;;2.63;2.43;;;28.00;78.40;;;;;;4919112;29;20449;-63
2023/05/09 09:30:43;;;;;;;2.53;2.33;;;27.60;79.60;;;;;;4919035;29;20929;-66
2023/05/09 09:33:09;;;;;;;3.70;3.30;;;27.40;82.00;;;;;;4918756;29;20173;-64
2023/05/09 09:35:39;;;;;;;3.33;2.87;;;27.20;81.90;;;;;;4918735;29;20393;-67
2023/05/09 09:38:05;;;;;;;3.03;2.83;;;26.60;83.20;;;;;;4933042;29;21022;-64
2023/05/09 09:40:31;;;;;;;3.73;3.33;;;26.40;83.20;;;;;;4937810;29;20376;-65
2023/05/09 09:42:56;;;;;;;3.83;3.53;;;26.20;85.10;;;;;;4937398;29;20174;-67
2023/05/09 09:45:22;;;;;;;3.03;2.80;;;25.90;84.40;;;;;;4937517;29;20201;-68
2023/05/09 09:47:51;;;;;;;4.83;4.20;;;25.60;85.40;;;;;;4937830;29;20178;-66
2023/05/09 09:50:21;;;;;;;3.50;3.20;;;25.70;85.60;;;;;;4937994;29;20181;-64
2023/05/09 09:52:52;;;;;;;3.67;3.37;;;25.70;85.70;;;;;;4937822;29;20392;-64
2023/05/09 09:55:19;;;;;;;2.70;2.50;;;25.50;86.80;;;;;;4936341;29;20727;-64
2023/05/09 09:57:46;;;;;;;3.30;3.00;;;25.90;86.40;;;;;;4937359;29;20760;-69
2023/05/09 10:00:14;;;;;;;3.37;2.70;;;26.10;87.20;;;;;;4901211;29;20412;-66
2023/05/09 10:02:50;;;;;;;2.60;2.40;;;26.20;85.70;;;;;;4918231;29;20389;-64
2023/05/09 10:05:20;;;;;;;3.30;3.07;;;26.30;84.70;;;;;;4900795;29;20978;-69
2023/05/09 10:07:59;;;;;;;4.00;3.60;;;26.10;86.20;;;;;;4918389;29;20400;-66
2023/05/09 10:10:29;;;;;;;3.00;2.70;;;25.90;86.90;;;;;;4917886;29;20765;-68
2023/05/09 10:13:03;;;;;;;3.90;3.13;;;26.30;86.80;;;;;;4915984;29;20404;-69
2023/05/09 10:15:30;;;;;;;2.77;2.57;;;26.90;89.00;;;;;;4899183;29;20969;-67
2023/05/09 10:17:57;;;;;;;3.90;3.50;;;27.50;86.40;;;;;;4916007;29;20540;-66
2023/05/09 10:20:24;;;;;;;2.80;2.60;;;28.20;83.70;;;;;;4915996;29;20388;-67
2023/05/09 10:22:54;;;;;;;5.50;5.10;;;28.70;81.60;;;;;;4916022;29;20424;-69
2023/05/09 10:25:21;;;;;;;4.47;3.80;;;29.10;80.90;;;;;;4916031;29;20413;-69
2023/05/09 10:27:49;;;;;;;5.00;4.37;;;29.50;78.90;;;;;;4917692;29;20489;-65
2023/05/09 10:30:22;;;;;;;4.23;3.30;;;29.80;78.60;;;;;;4917822;29;20917;-69
2023/05/09 10:33:01;;;;;;;3.03;2.83;;;30.10;77.10;;;;;;4917858;29;20400;-68
2023/05/09 10:35:31;;;;;;;3.00;2.80;;;30.30;77.90;;;;;;4900830;29;20861;-70
2023/05/09 10:37:58;;;;;;;4.00;3.70;;;30.50;78.50;;;;;;4917861;29;20513;-65
2023/05/09 10:40:25;;;;;;;4.10;3.80;;;30.80;74.70;;;;;;4900676;29;20425;-68
2023/05/09 10:42:51;;;;;;;4.57;4.17;;;30.80;75.00;;;;;;4917274;29;20407;-67
2023/05/09 10:45:18;;;;;;;4.03;3.73;;;30.60;75.00;;;;;;4917444;29;20959;-69
2023/05/09 10:47:46;;;;;;;4.33;3.93;;;30.20;74.50;;;;;;4917985;29;20178;-68
2023/05/09 10:50:12;;;;;;;4.43;4.03;;;29.60;76.40;;;;;;4917513;29;20393;-69
2023/05/09 10:53:16;;;;;;;4.60;4.20;;;29.10;77.50;;;;;;4900617;29;20756;-71
2023/05/09 10:55:51;;;;;;;3.70;3.40;;;28.40;79.30;;;;;;4917520;29;20411;-66
2023/05/09 10:58:32;;;;;;;4.23;3.80;;;27.90;80.70;;;;;;4917652;29;20392;-70
2023/05/09 11:01:00;;;;;;;3.30;3.00;;;27.40;81.10;;;;;;4934632;29;20781;-70
2023/05/09 11:03:27;;;;;;;4.17;3.80;;;26.90;83.10;;;;;;4936059;29;20786;-67
2023/05/09 11:05:57;;;;;;;3.10;2.80;;;26.50;83.50;;;;;;4936145;29;20420;-65
2023/05/09 11:08:28;;;;;;;3.17;2.97;;;26.00;84.50;;;;;;4936241;29;20441;-68
2023/05/09 11:10:56;;;;;;;2.87;2.67;;;25.70;86.40;;;;;;4936259;29;20415;-66
2023/05/09 11:13:24;;;;;;;3.13;2.83;;;25.50;87.80;;;;;;4935702;29;20441;-64
2023/05/09 11:15:52;;;;;;;3.03;2.83;;;25.30;86.80;;;;;;4936001;29;20428;-66
2023/05/09 11:18:18;;;;;;;2.57;2.37;;;25.10;87.60;;;;;;4918914;29;21001;-65
2023/05/09 11:20:47;;;;;;;3.00;2.70;;;24.80;88.10;;;;;;4936108;29;20381;-69
2023/05/09 11:23:17;;;;;;;2.30;2.10;;;24.80;89.30;;;;;;4935537;29;20198;-67
2023/05/09 11:25:45;;;;;;;2.50;2.30;;;24.80;91.20;;;;;;4935936;29;20467;-66
2023/05/09 11:28:25;;;;;;;2.97;2.70;;;24.90;89.10;;;;;;4935745;29;20716;-65
2023/05/09 11:30:51;;;;;;;2.20;2.00;;;25.00;88.90;;;;;;4935967;29;20386;-69
2023/05/09 11:33:27;;;;;;;3.33;2.80;;;25.20;88.30;;;;;;4935515;29;20381;-67
2023/05/09 11:36:28;;;;;;;3.63;3.07;;;25.20;89.90;;;;;;4935743;29;20191;-68
2023/05/09 11:39:10;;;;;;;4.00;3.67;;;25.30;90.10;;;;;;4935793;29;20413;-66
2023/05/09 11:41:41;;;;;;;3.13;2.87;;;25.20;89.80;;;;;;4935829;29;20409;-67
2023/05/09 11:44:17;;;;;;;4.30;3.10;;;24.90;90.10;;;;;;4935283;29;20447;-67
2023/05/09 11:46:44;;;;;;;3.60;2.93;;;24.90;91.40;;;;;;4935842;29;20890;-65
2023/05/09 11:49:10;;;;;;;2.90;2.70;;;25.00;90.40;;;;;;4935897;29;20783;-65
2023/05/09 11:51:37;;;;;;;3.10;2.80;;;25.10;90.80;;;;;;4935732;29;20443;-68
2023/05/09 11:54:06;;;;;;;3.30;3.03;;;25.10;90.50;;;;;;4935481;29;20182;-67
2023/05/09 11:56:36;;;;;;;3.80;2.90;;;25.10;91.20;;;;;;4935717;29;20465;-66
2023/05/09 11:59:02;;;;;;;3.17;2.90;;;24.90;90.50;;;;;;4933586;29;20416;-68
2023/05/09 12:01:29;;;;;;;3.30;3.00;;;24.60;91.20;;;;;;4916575;29;20825;-67
2023/05/09 12:03:56;;;;;;;3.27;3.07;;;24.60;91.60;;;;;;4899377;29;20509;-66
2023/05/09 12:06:21;;;;;;;3.20;2.90;;;24.40;92.00;;;;;;4916553;29;20422;-68
2023/05/09 12:08:47;;;;;;;3.20;3.00;;;24.40;91.80;;;;;;4916502;29;20421;-67
2023/05/09 12:11:14;;;;;;;3.23;2.93;;;24.40;92.00;;;;;;4899666;29;20233;-64
2023/05/09 12:13:51;;;;;;;3.20;2.90;;;24.20;92.30;;;;;;4916265;29;20396;-65
2023/05/09 12:16:17;;;;;;;3.87;2.83;;;24.10;91.70;;;;;;4916526;29;20454;-65
2023/05/09 12:18:51;;;;;;;3.43;3.13;;;24.00;92.30;;;;;;4919273;29;20505;-67
2023/05/09 12:21:18;;;;;;;2.97;2.67;;;24.00;92.30;;;;;;4919875;29;20489;-66
2023/05/09 12:23:45;;;;;;;2.90;2.70;;;24.10;92.00;;;;;;4919567;29;20387;-66
2023/05/09 12:26:11;;;;;;;3.30;3.00;;;24.00;92.30;;;;;;4919986;29;20418;-65
2023/05/09 12:28:37;;;;;;;2.70;2.53;;;23.80;92.60;;;;;;4920093;29;20456;-66
2023/05/09 12:31:04;;;;;;;2.90;2.70;;;23.70;93.20;;;;;;4919947;29;20404;-66
2023/05/09 12:33:30;;;;;;;3.30;3.00;;;23.50;92.80;;;;;;4919974;29;20765;-64
2023/05/09 12:36:06;;;;;;;3.93;3.20;;;23.50;93.30;;;;;;4919965;29;20733;-66
2023/05/09 12:38:32;;;;;;;2.97;2.77;;;23.50;93.80;;;;;;4902957;29;20928;-66
2023/05/09 12:41:05;;;;;;;3.27;3.07;;;23.50;93.80;;;;;;4920084;29;20389;-65
2023/05/09 12:43:32;;;;;;;2.63;2.43;;;23.50;93.40;;;;;;4902802;29;20182;-66
2023/05/09 12:45:59;;;;;;;2.30;2.10;;;23.50;93.40;;;;;;4919424;29;20504;-65
2023/05/09 12:48:25;;;;;;;2.50;2.30;;;23.50;93.40;;;;;;4919807;29;20385;-63
2023/05/09 12:50:51;;;;;;;2.37;2.17;;;23.50;92.90;;;;;;4919869;29;20404;-65
2023/05/09 12:53:25;;;;;;;3.30;3.00;;;23.60;93.50;;;;;;4902358;29;20454;-68
2023/05/09 12:55:55;;;;;;;4.07;2.50;;;23.80;93.50;;;;;;4919585;29;20409;-65
2023/05/09 12:58:21;;;;;;;3.27;2.97;;;23.90;93.50;;;;;;4919717;29;20409;-66
2023/05/09 13:00:46;;;;;;;2.57;2.37;;;24.00;93.00;;;;;;4935285;29;20444;-66
2023/05/09 13:03:36;;;;;;;2.53;2.33;;;24.10;92.40;;;;;;4937111;29;20227;-67
2023/05/09 13:06:04;;;;;;;2.97;2.73;;;24.20;93.00;;;;;;4933839;29;20225;-66
2023/05/09 13:08:30;;;;;;;2.43;2.20;;;24.20;92.70;;;;;;4919379;29;20428;-66
2023/05/09 13:10:56;;;;;;;2.33;2.20;;;24.20;92.30;;;;;;4919200;29;20434;-67
2023/05/09 13:13:27;;;;;;;3.03;2.73;;;24.10;92.30;;;;;;4935827;29;20413;-67
2023/05/09 13:15:53;;;;;;;3.63;2.47;;;24.00;92.90;;;;;;4935870;29;20796;-66
2023/05/09 13:18:20;;;;;;;2.40;2.20;;;24.10;92.90;;;;;;4936996;29;20420;-66
2023/05/09 13:20:46;;;;;;;2.57;2.37;;;24.10;92.90;;;;;;4937999;29;20396;-65
2023/05/09 13:23:12;;;;;;;2.47;2.27;;;24.00;92.60;;;;;;4937671;29;20819;-65
2023/05/09 13:25:37;;;;;;;2.67;2.47;;;24.00;92.80;;;;;;4938222;29;20430;-67
2023/05/09 13:28:03;;;;;;;2.10;2.00;;;24.10;92.50;;;;;;4938277;29;20178;-66
2023/05/09 13:30:29;;;;;;;2.37;2.17;;;24.20;92.60;;;;;;4937124;29;20505;-65
2023/05/09 13:32:55;;;;;;;2.30;2.10;;;24.30;92.40;;;;;;4937546;29;20205;-69
2023/05/09 13:35:21;;;;;;;2.30;2.10;;;24.20;92.30;;;;;;4937728;29;20457;-65
2023/05/09 13:37:46;;;;;;;2.33;2.17;;;24.20;92.30;;;;;;4937758;29;20213;-67
2023/05/09 13:40:12;;;;;;;2.90;2.77;;;24.10;92.00;;;;;;4937769;29;20204;-66
2023/05/09 13:42:38;;;;;;;2.10;1.83;;;24.00;91.90;;;;;;4937883;29;20169;-67
2023/05/09 13:45:04;;;;;;;2.60;1.90;;;24.00;91.70;;;;;;4937395;29;20871;-66
2023/05/09 13:47:30;;;;;;;2.70;1.73;;;24.00;91.90;;;;;;4937887;29;20540;-65
2023/05/09 13:49:56;;;;;;;2.70;1.80;;;24.00;92.40;;;;;;4920543;29;20428;-66
2023/05/09 13:52:22;;;;;;;1.70;1.60;;;23.90;91.60;;;;;;4938034;29;20185;-66
2023/05/09 13:54:47;;;;;;;1.60;1.50;;;23.90;91.70;;;;;;4919984;29;20206;-65
2023/05/09 13:57:13;;;;;;;1.50;1.40;;;23.80;91.90;;;;;;4937616;29;20492;-66
2023/05/09 13:59:41;;;;;;;1.23;1.23;;;23.80;91.50;;;;;;4930717;29;20179;-67
2023/05/09 14:02:09;;;;;;;1.83;1.73;;;23.80;91.70;;;;;;4918660;29;20625;-65
2023/05/09 14:04:35;;;;;;;1.40;1.30;;;23.80;91.90;;;;;;4917935;29;20546;-66
2023/05/09 14:07:01;;;;;;;1.67;1.57;;;23.80;91.70;;;;;;4901333;29;20437;-66
2023/05/09 14:09:28;;;;;;;1.43;1.20;;;23.80;91.10;;;;;;4918625;29;20411;-65
2023/05/09 14:11:54;;;;;;;1.77;1.70;;;23.80;90.70;;;;;;4918445;29;20447;-65
2023/05/09 14:14:21;;;;;;;1.00;1.00;;;23.70;90.50;;;;;;4918014;29;20423;-66
2023/05/09 14:16:48;;;;;;;1.40;1.30;;;23.80;90.80;;;;;;4918029;29;20466;-66
2023/05/09 14:19:14;;;;;;;1.53;1.43;;;23.80;90.90;;;;;;4918218;29;20420;-66
2023/05/09 14:21:41;;;;;;;1.67;1.57;;;23.90;91.40;;;;;;4918182;29;20430;-66
2023/05/09 14:24:08;;;;;;;1.80;1.67;;;23.80;91.00;;;;;;4917759;29;20432;-65
2023/05/09 14:26:34;;;;;;;1.93;1.77;;;23.80;91.00;;;;;;4918148;29;20450;-66
2023/05/09 14:29:00;;;;;;;1.47;1.37;;;23.80;91.20;;;;;;4918133;29;20438;-67
2023/05/09 14:31:26;;;;;;;1.50;1.40;;;23.70;91.40;;;;;;4900972;29;20421;-66
2023/05/09 14:33:51;;;;;;;1.57;1.47;;;23.60;91.80;;;;;;4917537;29;20444;-65
2023/05/09 14:36:17;;;;;;;1.50;1.40;;;23.50;91.50;;;;;;4917879;29;20205;-65
2023/05/09 14:38:44;;;;;;;1.50;1.30;;;23.40;91.70;;;;;;4918250;29;20330;-64
2023/05/09 14:41:10;;;;;;;1.87;1.77;;;23.30;91.90;;;;;;4917635;29;20163;-65
2023/05/09 14:43:35;;;;;;;1.57;1.47;;;23.20;92.20;;;;;;4900438;29;20429;-66
2023/05/09 14:46:01;;;;;;;1.33;1.23;;;23.10;92.40;;;;;;4917739;29;20194;-65
2023/05/09 14:48:27;;;;;;;1.33;1.23;;;22.90;92.70;;;;;;4917652;29;20206;-65
2023/05/09 14:50:55;;;;;;;1.80;1.70;;;22.80;93.00;;;;;;4917668;29;20257;-64
2023/05/09 14:53:22;;;;;;;1.57;1.30;;;22.50;93.80;;;;;;4900338;29;20177;-65
2023/05/09 14:55:48;;;;;;;1.10;0.90;;;22.40;94.50;;;;;;4917549;29;20433;-66
2023/05/09 14:58:15;;;;;;;1.40;1.30;;;22.10;95.60;;;;;;4917428;29;20562;-65
2023/05/09 15:00:40;;;;;;;1.47;1.40;;;21.80;97.30;;;;;;4932459;29;20414;-71
2023/05/09 15:03:06;;;;;;;1.80;1.70;;;21.30;99.90;;;;;;4919047;29;20413;-69
2023/05/09 15:05:32;;;;;;;1.70;1.60;;;20.40;99.90;;;;;;4936338;29;20692;-68
2023/05/09 15:07:57;;;;;;;1.97;1.87;;;19.20;99.90;;;;;;4936450;29;20173;-68
2023/05/09 15:10:23;;;;;;;1.70;1.60;;;18.30;99.90;;;;;;4918967;29;20181;-69
2023/05/09 15:12:48;;;;;;;1.70;1.60;;;17.70;99.90;;;;;;4936256;29;20180;-70
2023/05/09 15:15:16;;;;;;;3.20;2.90;;;17.20;99.90;;;;;;4935833;29;20269;-71
2023/05/09 15:17:45;;;;;;;2.00;1.90;;;17.00;99.90;;;;;;4919097;29;20702;-70
2023/05/09 15:20:13;;;;;;;2.10;1.67;;;16.70;99.90;;;;;;4936082;29;20413;-72
2023/05/09 15:22:40;;;;;;;1.80;1.70;;;16.70;99.90;;;;;;4936086;29;20438;-72
2023/05/09 15:25:06;;;;;;;1.80;1.70;;;16.70;99.90;;;;;;4935590;29;20432;-73
2023/05/09 15:27:32;;;;;;;2.03;1.83;;;16.80;99.90;;;;;;4919134;29;20424;-75
2023/05/09 15:29:57;;;;;;;2.40;2.20;;;16.80;99.90;;;;;;4918665;29;20398;-72
2023/05/09 15:32:23;;;;;;;1.83;1.70;;;16.80;99.90;;;;;;4936109;29;20200;-70
2023/05/09 15:34:49;;;;;;;1.67;1.57;;;16.80;99.90;;;;;;4928865;29;20679;-69
2023/05/09 15:37:14;;;;;;;3.47;2.40;;;16.80;99.90;;;;;;4933661;29;20666;-69
2023/05/09 15:39:42;;;;;;;3.17;1.90;;;16.90;99.90;;;;;;4919197;29;20178;-69
2023/05/09 15:42:09;;;;;;;1.80;1.70;;;16.90;99.90;;;;;;4936176;29;20176;-68
2023/05/09 15:44:34;;;;;;;2.10;2.00;;;16.90;99.90;;;;;;4935614;29;20425;-70
2023/05/09 15:47:00;;;;;;;2.20;2.00;;;16.90;99.90;;;;;;4918951;29;20746;-68
2023/05/09 15:49:26;;;;;;;3.03;2.77;;;17.10;99.90;;;;;;4936102;29;20303;-70
2023/05/09 15:51:52;;;;;;;2.53;2.33;;;17.10;99.90;;;;;;4935996;29;20188;-68
2023/05/09 15:54:18;;;;;;;5.57;3.10;;;17.20;99.90;;;;;;4939314;29;20274;-68
2023/05/09 15:56:43;;;;;;;3.97;2.53;;;17.20;99.90;;;;;;4940152;29;20800;-67
2023/05/09 15:59:09;;;;;;;3.33;2.30;;;17.30;99.90;;;;;;4936707;29;20385;-68
2023/05/09 16:01:35;;;;;;;2.00;1.77;;;17.30;99.90;;;;;;4921007;29;20167;-67
2023/05/09 16:04:00;;;;;;;7.70;2.33;;;17.30;99.90;;;;;;4920428;29;20647;-66
2023/05/09 16:06:27;;;;;;;4.30;2.40;;;17.30;99.90;;;;;;4903549;29;20193;-68
2023/05/09 16:08:53;;;;;;;2.20;2.00;;;17.30;99.90;;;;;;4925427;29;20182;-67
2023/05/09 16:11:20;;;;;;;2.27;2.13;;;17.40;99.90;;;;;;4921336;29;20519;-72
2023/05/09 16:13:46;;;;;;;2.33;1.60;;;17.50;99.90;;;;;;4920938;29;20392;-65
2023/05/09 16:16:11;;;;;;;3.37;3.00;;;17.60;99.90;;;;;;4938657;29;20395;-70
2023/05/09 16:18:37;;;;;;;2.90;2.53;;;17.70;99.90;;;;;;4922199;29;20239;-68
2023/05/09 16:21:02;;;;;;;1.93;1.73;;;17.80;99.90;;;;;;4939256;29;20174;-66
2023/05/09 16:23:29;;;;;;;2.10;2.00;;;17.70;99.90;;;;;;4920615;29;20541;-68
2023/05/09 16:25:55;;;;;;;2.77;2.10;;;17.80;99.90;;;;;;4920038;29;20253;-69
2023/05/09 16:28:22;;;;;;;1.83;1.73;;;17.70;99.90;;;;;;4903186;29;20852;-71
2023/05/09 16:30:50;;;;;;;1.83;1.73;;;17.80;99.90;;;;;;4903042;29;20174;-69
2023/05/09 16:33:17;;;;;;;2.57;2.37;;;17.70;99.90;;;;;;4935733;29;20433;-69
2023/05/09 16:35:43;;;;;;;1.87;1.77;;;17.70;99.90;;;;;;4939265;29;20547;-66
2023/05/09 16:38:09;;;;;;;3.00;2.80;;;17.60;99.90;;;;;;4938877;29;21023;-66
2023/05/09 16:40:35;;;;;;;1.70;1.60;;;17.60;99.90;;;;;;4932988;29;20429;-65
2023/05/09 16:43:01;;;;;;;2.13;1.93;;;17.60;99.90;;;;;;4938470;29;20411;-65
2023/05/09 16:45:27;;;;;;;3.30;3.00;;;17.60;99.90;;;;;;4938912;29;20920;-66
2023/05/09 16:47:54;;;;;;;3.60;2.80;;;17.60;99.90;;;;;;4938855;29;20215;-66
2023/05/09 16:50:19;;;;;;;2.40;1.80;;;17.60;99.90;;;;;;4929629;29;20430;-66